Time;durP1;ratioP1;P1;durP2;ratioP2;P2;SDS_P1;SDS_P2;PMS_P1;PMS_P2;Temp;Humidity;BMP_temperature;BMP_pressure;BME280_temperature;BME280_humidity;BME280_pressure;Samples;Min_cycle;Max_cycle;Signal;HPM_P1;HPM_P2
2022/04/09 00:01:36;;;;;;;10.90;3.57;;;;;;;2.45;91.15;99197.22;6009148;28;20027;-71
2022/04/09 00:04:31;;;;;;;7.73;3.47;;;;;;;2.53;90.70;99205.25;6003288;28;20035;-72
2022/04/09 00:07:26;;;;;;;10.97;3.47;;;;;;;2.61;90.07;99215.88;6003385;28;20134;-71
2022/04/09 00:10:22;;;;;;;11.57;3.37;;;;;;;2.59;90.13;99212.53;6002708;28;20069;-73
2022/04/09 00:13:19;;;;;;;7.73;3.60;;;;;;;2.61;89.81;99215.88;6002537;28;20270;-73
2022/04/09 00:16:15;;;;;;;8.00;3.33;;;;;;;2.66;89.52;99224.16;6002822;28;20598;-71
2022/04/09 00:19:11;;;;;;;8.65;3.08;;;;;;;2.67;88.97;99224.00;6003656;28;20398;-72
2022/04/09 00:22:06;;;;;;;15.65;3.90;;;;;;;2.66;88.70;99230.22;6007767;28;20037;-72
2022/04/09 00:25:01;;;;;;;6.50;2.57;;;;;;;2.67;88.61;99231.00;6002785;28;20170;-71
2022/04/09 00:27:57;;;;;;;6.37;2.80;;;;;;;2.64;88.01;99233.91;6002230;28;20027;-72
2022/04/09 00:30:52;;;;;;;9.70;2.78;;;;;;;2.57;88.73;99235.41;5976126;29;20286;-72
2022/04/09 00:33:48;;;;;;;10.53;2.57;;;;;;;2.56;89.19;99244.19;6000989;28;20031;-72
2022/04/09 00:36:43;;;;;;;10.23;2.33;;;;;;;2.49;89.37;99243.91;6002353;28;20085;-71
2022/04/09 00:39:38;;;;;;;13.03;2.70;;;;;;;2.37;89.07;99253.63;6002593;28;20039;-73
2022/04/09 00:42:34;;;;;;;5.73;2.00;;;;;;;2.33;89.67;99257.47;6002142;28;20474;-71
2022/04/09 00:45:29;;;;;;;8.53;2.53;;;;;;;2.32;89.22;99273.28;6002329;28;20027;-72
2022/04/09 00:48:24;;;;;;;7.03;2.20;;;;;;;2.24;89.42;99255.63;6002710;28;20117;-71
2022/04/09 00:51:20;;;;;;;8.27;2.23;;;;;;;2.28;90.25;99262.22;6001049;28;20070;-72
2022/04/09 00:54:15;;;;;;;5.72;2.40;;;;;;;2.38;89.67;99273.59;6002882;28;20277;-72
2022/04/09 00:57:11;;;;;;;8.85;2.45;;;;;;;2.44;89.46;99274.03;5985331;28;20050;-72
2022/04/09 01:00:10;;;;;;;5.82;2.20;;;;;;;2.44;89.17;99277.47;6001179;28;20446;-71
2022/04/09 01:03:05;;;;;;;8.43;2.20;;;;;;;2.51;89.28;99283.00;6012657;28;20031;-71
2022/04/09 01:06:01;;;;;;;10.00;2.08;;;;;;;2.55;89.12;99290.47;5984553;28;20398;-72
2022/04/09 01:08:57;;;;;;;7.43;2.10;;;;;;;2.55;88.96;99305.34;6001604;28;20105;-71
2022/04/09 01:11:54;;;;;;;7.23;2.10;;;;;;;2.55;88.89;99300.13;6001002;28;20118;-71
2022/04/09 01:14:49;;;;;;;10.25;2.10;;;;;;;2.52;88.51;99306.44;6001265;28;20077;-70
2022/04/09 01:17:45;;;;;;;10.45;2.10;;;;;;;2.46;88.43;99306.94;5984965;28;20034;-71
2022/04/09 01:20:40;;;;;;;7.82;2.33;;;;;;;2.40;88.30;99313.53;6001079;28;20475;-70
2022/04/09 01:23:36;;;;;;;9.17;2.40;;;;;;;2.45;88.97;99320.16;6001927;28;20038;-71
2022/04/09 01:26:31;;;;;;;8.02;2.28;;;;;;;2.48;88.73;99325.13;6001828;28;20394;-71
2022/04/09 01:29:27;;;;;;;5.43;2.17;;;;;;;2.59;88.68;99325.03;6001586;28;20039;-69
2022/04/09 01:32:22;;;;;;;11.57;2.97;;;;;;;2.63;88.43;99329.06;6001479;28;20038;-70
2022/04/09 01:35:17;;;;;;;6.38;1.70;;;;;;;2.63;88.77;99334.31;6001858;28;20529;-72
2022/04/09 01:38:13;;;;;;;8.43;1.93;;;;;;;2.51;88.98;99345.78;6002036;28;20034;-72
2022/04/09 01:41:09;;;;;;;4.30;1.65;;;;;;;2.49;88.71;99347.72;6000504;28;20185;-72
2022/04/09 01:44:04;;;;;;;6.23;1.97;;;;;;;2.50;89.35;99352.00;6001650;28;20031;-71
2022/04/09 01:47:00;;;;;;;6.25;2.08;;;;;;;2.58;89.47;99352.19;6001931;28;20517;-71
2022/04/09 01:49:55;;;;;;;7.43;2.43;;;;;;;2.57;89.57;99359.19;6001287;28;20042;-72
2022/04/09 01:52:50;;;;;;;6.93;1.80;;;;;;;2.52;88.70;99368.38;6001490;28;20114;-71
2022/04/09 01:55:46;;;;;;;6.57;1.80;;;;;;;2.49;89.23;99372.09;6003257;28;20043;-72
2022/04/09 01:58:41;;;;;;;8.07;2.03;;;;;;;2.51;89.51;99379.78;5999676;28;20453;-71
2022/04/09 02:01:36;;;;;;;7.97;1.83;;;;;;;2.57;89.56;99382.75;6005616;28;20038;-72
2022/04/09 02:04:32;;;;;;;4.30;1.73;;;;;;;2.68;89.49;99389.69;6002573;28;20047;-71
2022/04/09 02:07:27;;;;;;;11.10;1.60;;;;;;;2.70;89.62;99390.38;5986117;28;20270;-70
2022/04/09 02:10:22;;;;;;;6.77;1.63;;;;;;;2.77;89.41;99392.34;5998722;28;20046;-71
2022/04/09 02:13:18;;;;;;;4.90;1.73;;;;;;;2.74;89.47;99412.72;6000318;28;20505;-72
2022/04/09 02:16:14;;;;;;;15.27;2.20;;;;;;;2.71;89.18;99407.75;6001657;28;20041;-72
2022/04/09 02:19:10;;;;;;;6.82;1.98;;;;;;;2.72;89.11;99423.31;6001306;28;20125;-71
2022/04/09 02:22:06;;;;;;;10.18;1.95;;;;;;;2.77;89.19;99428.97;6002627;28;20035;-71
2022/04/09 02:25:03;;;;;;;6.05;1.70;;;;;;;2.81;89.02;99433.03;6004921;28;20441;-71
2022/04/09 02:27:58;;;;;;;9.82;1.80;;;;;;;2.81;89.36;99429.56;6005374;28;20106;-71
2022/04/09 02:30:55;;;;;;;10.27;2.23;;;;;;;2.78;88.67;99427.19;6004540;28;20035;-70
2022/04/09 02:33:50;;;;;;;11.32;1.67;;;;;;;2.78;88.70;99441.13;6005153;28;20050;-70
2022/04/09 02:36:45;;;;;;;8.63;2.07;;;;;;;2.80;89.22;99436.59;6005853;28;20474;-72
2022/04/09 02:39:41;;;;;;;4.50;1.43;;;;;;;2.83;89.12;99451.19;6005117;28;20050;-72
2022/04/09 02:42:37;;;;;;;6.05;2.60;;;;;;;2.81;89.17;99453.97;6004895;28;20054;-70
2022/04/09 02:45:32;;;;;;;13.20;2.10;;;;;;;2.75;89.56;99459.69;6004563;28;20038;-71
2022/04/09 02:48:28;;;;;;;5.77;2.60;;;;;;;2.74;89.73;99467.69;6004051;28;20407;-72
2022/04/09 02:51:23;;;;;;;15.80;3.23;;;;;;;2.74;89.58;99480.78;6004538;28;20031;-70
2022/04/09 02:54:18;;;;;;;8.37;2.27;;;;;;;2.74;89.75;99483.41;6008061;28;20037;-72
2022/04/09 02:57:13;;;;;;;7.53;2.80;;;;;;;2.76;88.79;99486.72;6014942;28;20031;-70
2022/04/09 03:00:14;;;;;;;6.57;1.90;;;;;;;2.82;89.10;99491.44;6004530;28;20101;-70
2022/04/09 03:03:09;;;;;;;8.32;2.28;;;;;;;2.90;89.00;99502.09;6013030;28;20630;-70
2022/04/09 03:06:04;;;;;;;8.57;2.20;;;;;;;2.97;89.02;99513.72;6004199;28;20043;-71
2022/04/09 03:08:59;;;;;;;5.97;1.93;;;;;;;2.93;88.26;99518.41;6004137;28;20109;-72
2022/04/09 03:11:55;;;;;;;6.83;2.10;;;;;;;2.96;87.81;99520.72;6004264;28;20031;-71
2022/04/09 03:14:50;;;;;;;9.03;2.00;;;;;;;2.97;88.72;99527.63;6004713;28;20035;-71
2022/04/09 03:17:45;;;;;;;4.87;2.07;;;;;;;2.98;88.17;99533.72;6004665;28;20039;-71
2022/04/09 03:20:41;;;;;;;7.43;1.87;;;;;;;2.98;88.82;99533.72;6003345;28;20035;-71
2022/04/09 03:23:36;;;;;;;13.45;2.17;;;;;;;2.99;88.42;99532.72;6003838;28;20470;-71
2022/04/09 03:26:31;;;;;;;8.53;2.33;;;;;;;2.99;88.70;99546.66;6012029;28;20113;-72
2022/04/09 03:29:27;;;;;;;11.80;2.67;;;;;;;3.01;88.59;99557.03;6012878;28;20019;-71
2022/04/09 03:32:22;;;;;;;6.67;2.00;;;;;;;3.03;88.98;99552.47;6003696;28;20118;-72
2022/04/09 03:35:18;;;;;;;8.70;2.15;;;;;;;3.10;88.83;99563.28;6003266;28;20314;-72
2022/04/09 03:38:13;;;;;;;14.60;2.30;;;;;;;3.14;88.65;99562.91;5976606;28;20046;-71
2022/04/09 03:41:08;;;;;;;13.30;2.67;;;;;;;3.13;87.73;99571.72;6003087;28;20130;-71
2022/04/09 03:44:04;;;;;;;8.93;2.53;;;;;;;3.16;88.00;99566.22;6006047;28;20789;-71
2022/04/09 03:47:00;;;;;;;7.43;2.22;;;;;;;3.10;88.15;99566.72;6003918;28;20030;-71
2022/04/09 03:49:56;;;;;;;12.20;3.42;;;;;;;3.07;88.16;99574.03;6003620;28;20082;-72
2022/04/09 03:52:51;;;;;;;9.73;2.90;;;;;;;3.06;88.23;99583.66;6002982;28;20045;-71
2022/04/09 03:55:47;;;;;;;8.00;2.10;;;;;;;3.01;88.41;99575.34;6003779;28;20041;-71
2022/04/09 03:58:43;;;;;;;12.98;2.53;;;;;;;3.02;88.60;99577.00;6003349;28;20047;-71
2022/04/09 04:01:39;;;;;;;7.72;2.80;;;;;;;3.03;88.22;99598.78;6008599;28;20580;-71
2022/04/09 04:04:35;;;;;;;11.23;2.70;;;;;;;3.09;87.77;99593.03;6006241;28;20034;-71
2022/04/09 04:07:31;;;;;;;6.25;2.92;;;;;;;3.03;88.03;99604.84;6003116;28;20034;-71
2022/04/09 04:10:26;;;;;;;7.82;2.38;;;;;;;3.00;88.19;99605.94;6002865;28;20042;-71
2022/04/09 04:13:21;;;;;;;9.13;2.60;;;;;;;3.01;87.74;99619.88;6003258;28;20031;-72
2022/04/09 04:16:16;;;;;;;11.47;2.97;;;;;;;2.99;87.89;99619.13;6003536;28;20023;-72
2022/04/09 04:19:12;;;;;;;6.00;2.20;;;;;;;2.99;88.48;99629.59;6002743;28;20781;-72
2022/04/09 04:22:08;;;;;;;11.67;2.40;;;;;;;2.98;88.71;99627.97;6002656;28;20085;-71
2022/04/09 04:25:04;;;;;;;12.32;3.55;;;;;;;2.96;88.30;99635.94;6003035;28;20765;-72
2022/04/09 04:27:59;;;;;;;7.05;2.90;;;;;;;2.95;88.74;99636.91;6002987;28;20031;-71
2022/04/09 04:30:55;;;;;;;11.30;2.30;;;;;;;2.98;88.43;99648.91;6002431;28;20065;-71
2022/04/09 04:33:50;;;;;;;12.55;2.85;;;;;;;2.87;88.52;99648.94;6002757;28;20034;-71
2022/04/09 04:36:46;;;;;;;8.23;3.00;;;;;;;2.76;88.04;99655.03;6003065;28;20042;-71
2022/04/09 04:39:41;;;;;;;12.20;2.57;;;;;;;2.72;88.77;99663.25;6002294;28;20105;-72
2022/04/09 04:42:36;;;;;;;11.63;2.37;;;;;;;2.68;88.90;99661.84;6001967;28;20086;-71
2022/04/09 04:45:32;;;;;;;7.43;2.13;;;;;;;2.67;89.69;99665.41;6002068;28;20075;-71
2022/04/09 04:48:27;;;;;;;9.93;2.55;;;;;;;2.65;88.99;99677.78;6002548;28;20125;-72
2022/04/09 04:51:23;;;;;;;13.30;2.37;;;;;;;2.60;88.99;99685.16;6001699;28;20042;-71
2022/04/09 04:54:18;;;;;;;13.53;2.57;;;;;;;2.48;89.90;99676.50;6005608;28;20033;-72
2022/04/09 04:57:13;;;;;;;10.60;2.70;;;;;;;2.54;89.95;99690.88;6012538;28;20475;-71
2022/04/09 05:00:09;;;;;;;7.27;1.93;;;;;;;2.55;89.86;99697.78;6001258;28;20101;-70
2022/04/09 05:03:04;;;;;;;8.15;2.03;;;;;;;2.56;89.29;99702.03;6011934;28;20034;-71
2022/04/09 05:05:59;;;;;;;6.97;2.23;;;;;;;2.57;90.09;99703.72;6001839;28;20039;-71
2022/04/09 05:08:55;;;;;;;3.60;1.50;;;;;;;2.62;89.46;99706.81;6002735;28;20031;-71
2022/04/09 05:11:50;;;;;;;7.93;2.40;;;;;;;2.63;88.96;99711.09;6001550;28;20471;-72
2022/04/09 05:14:46;;;;;;;5.95;2.00;;;;;;;2.67;89.14;99712.50;6002119;28;20035;-70
2022/04/09 05:17:41;;;;;;;7.07;2.27;;;;;;;2.69;89.09;99721.91;6002584;28;20026;-71
2022/04/09 05:20:37;;;;;;;8.80;2.05;;;;;;;2.63;88.99;99719.78;6001204;28;20034;-70
2022/04/09 05:23:32;;;;;;;5.93;1.53;;;;;;;2.68;89.08;99729.88;6002130;28;20110;-71
2022/04/09 05:26:28;;;;;;;6.70;1.77;;;;;;;2.74;88.26;99739.88;6002357;28;20269;-72
2022/04/09 05:29:24;;;;;;;9.68;1.77;;;;;;;2.82;88.38;99733.09;6000564;28;20166;-70
2022/04/09 05:32:19;;;;;;;9.23;2.03;;;;;;;2.99;87.68;99744.81;6001729;28;20074;-71
2022/04/09 05:35:16;;;;;;;4.30;1.70;;;;;;;3.32;87.06;99749.97;6002167;28;20427;-69
2022/04/09 05:38:12;;;;;;;8.93;2.00;;;;;;;3.46;86.26;99751.47;6002408;28;20324;-72
2022/04/09 05:41:07;;;;;;;6.05;1.80;;;;;;;3.55;85.40;99762.06;6001163;28;20035;-72
2022/04/09 05:44:03;;;;;;;7.67;1.67;;;;;;;3.61;84.70;99763.34;6001920;28;20491;-72
2022/04/09 05:47:00;;;;;;;12.15;1.52;;;;;;;3.67;84.70;99777.75;6001793;28;20270;-70
2022/04/09 05:49:58;;;;;;;15.13;1.70;;;;;;;3.62;84.86;99780.72;6001740;28;20026;-72
2022/04/09 05:52:54;;;;;;;11.77;1.40;;;;;;;3.82;84.77;99795.66;6001695;28;20126;-72
2022/04/09 05:55:49;;;;;;;8.30;1.40;;;;;;;3.88;83.30;99794.34;6002467;28;20394;-70
2022/04/09 05:58:44;;;;;;;4.47;1.47;;;;;;;3.58;84.36;99801.13;6005841;28;20212;-72
2022/04/09 06:01:40;;;;;;;7.30;1.80;;;;;;;3.72;85.22;99801.78;6012782;28;20409;-71
2022/04/09 06:04:35;;;;;;;4.35;1.58;;;;;;;3.81;84.46;99807.09;6009026;28;20043;-71
2022/04/09 06:07:30;;;;;;;5.70;1.73;;;;;;;4.17;83.13;99813.72;6006519;28;20042;-71
2022/04/09 06:10:26;;;;;;;6.27;2.23;;;;;;;4.04;82.71;99807.84;6003933;28;20281;-72
2022/04/09 06:13:21;;;;;;;5.80;1.73;;;;;;;3.89;83.73;99819.56;6005093;28;20031;-70
2022/04/09 06:16:17;;;;;;;7.70;2.13;;;;;;;3.96;83.43;99816.34;6004100;28;20113;-72
2022/04/09 06:19:12;;;;;;;11.85;2.38;;;;;;;4.00;83.06;99820.38;6004483;28;20353;-71
2022/04/09 06:22:07;;;;;;;8.23;2.08;;;;;;;3.82;84.42;99829.75;6003473;28;20492;-72
2022/04/09 06:25:03;;;;;;;8.30;2.10;;;;;;;3.82;84.46;99835.00;6002936;28;20110;-71
2022/04/09 06:28:00;;;;;;;9.77;2.30;;;;;;;4.12;83.14;99831.66;6003119;28;20045;-71
2022/04/09 06:30:56;;;;;;;7.78;1.83;;;;;;;4.63;81.73;99847.44;6000387;28;20038;-72
2022/04/09 06:33:52;;;;;;;8.88;2.00;;;;;;;4.89;81.84;99848.69;6007280;28;20387;-72
2022/04/09 06:36:48;;;;;;;5.93;1.80;;;;;;;5.44;79.62;99839.47;6004010;28;20035;-69
2022/04/09 06:39:43;;;;;;;6.40;1.73;;;;;;;5.26;79.07;99859.47;6004653;28;20031;-71
2022/04/09 06:42:39;;;;;;;14.52;2.08;;;;;;;4.85;79.59;99856.97;6004449;28;20046;-72
2022/04/09 06:45:35;;;;;;;8.07;2.33;;;;;;;4.86;80.37;99861.25;6006649;28;20042;-71
2022/04/09 06:48:31;;;;;;;6.10;1.77;;;;;;;4.99;80.19;99867.97;6002018;28;20039;-70
2022/04/09 06:51:26;;;;;;;7.20;1.88;;;;;;;5.09;78.58;99860.09;6000510;28;20121;-70
2022/04/09 06:54:21;;;;;;;4.47;1.70;;;;;;;5.20;77.88;99868.72;6004527;28;20045;-70
2022/04/09 06:57:17;;;;;;;7.27;1.60;;;;;;;5.32;78.24;99879.97;6005453;28;20116;-71
2022/04/09 07:00:14;;;;;;;5.10;1.30;;;;;;;5.29;77.86;99883.72;6004064;28;20034;-71
2022/04/09 07:03:10;;;;;;;8.73;2.40;;;;;;;5.27;77.95;99882.19;6015089;28;20042;-70
2022/04/09 07:06:06;;;;;;;6.43;1.60;;;;;;;5.24;76.18;99879.81;6004754;28;20047;-70
2022/04/09 07:09:01;;;;;;;8.63;1.88;;;;;;;5.22;77.45;99881.72;6004032;28;20101;-70
2022/04/09 07:11:57;;;;;;;10.05;2.35;;;;;;;5.30;76.95;99889.78;6001832;28;20386;-70
2022/04/09 07:14:52;;;;;;;10.20;2.30;;;;;;;5.47;76.45;99891.78;5997769;28;20046;-70
2022/04/09 07:17:48;;;;;;;6.77;1.80;;;;;;;5.72;76.12;99883.41;6000478;28;20043;-70
2022/04/09 07:20:44;;;;;;;6.00;1.70;;;;;;;5.87;74.93;99892.59;5999011;28;20278;-71
2022/04/09 07:23:40;;;;;;;5.57;1.55;;;;;;;5.97;75.37;99885.56;6000692;28;20043;-72
2022/04/09 07:26:35;;;;;;;5.80;1.48;;;;;;;6.11;74.28;99905.38;6001129;28;20051;-71
2022/04/09 07:29:31;;;;;;;5.17;1.50;;;;;;;6.13;75.14;99905.22;6001642;28;20070;-71
2022/04/09 07:32:26;;;;;;;6.57;1.60;;;;;;;6.13;73.94;99910.50;6002170;28;20493;-72
2022/04/09 07:35:21;;;;;;;7.37;1.50;;;;;;;5.88;74.08;99911.84;5999755;28;20274;-72
2022/04/09 07:38:17;;;;;;;4.70;1.52;;;;;;;6.03;74.32;99914.94;6002917;28;20027;-72
2022/04/09 07:41:12;;;;;;;6.10;1.73;;;;;;;6.36;74.83;99917.16;6002542;28;20034;-71
2022/04/09 07:44:08;;;;;;;6.00;1.43;;;;;;;6.43;73.46;99923.53;6003487;28;20045;-72
2022/04/09 07:47:03;;;;;;;4.50;1.48;;;;;;;6.43;71.35;99928.78;6004157;28;20035;-71
2022/04/09 07:50:00;;;;;;;4.25;1.52;;;;;;;6.42;71.68;99933.22;6003426;28;20398;-72
2022/04/09 07:52:56;;;;;;;8.15;1.55;;;;;;;6.76;71.45;99931.00;6003196;28;20065;-72
2022/04/09 07:55:51;;;;;;;4.25;1.10;;;;;;;6.52;71.29;99934.03;6017189;28;20035;-71
2022/04/09 07:58:47;;;;;;;9.00;1.33;;;;;;;6.52;71.68;99933.25;6010909;28;20501;-71
2022/04/09 08:01:42;;;;;;;4.70;1.07;;;;;;;6.31;71.31;99940.41;6003002;28;20486;-71
2022/04/09 08:04:37;;;;;;;5.03;1.50;;;;;;;6.09;70.82;99932.81;6003254;28;20051;-70
2022/04/09 08:07:32;;;;;;;10.00;2.77;;;;;;;5.97;70.62;99935.56;6003493;28;20371;-72
2022/04/09 08:10:28;;;;;;;4.07;1.30;;;;;;;6.28;70.36;99951.22;6002076;28;20490;-71
2022/04/09 08:13:23;;;;;;;5.53;1.70;;;;;;;6.52;69.35;99943.78;6002706;28;20038;-71
2022/04/09 08:16:19;;;;;;;4.10;1.10;;;;;;;6.69;69.66;99950.94;6002936;28;20038;-72
2022/04/09 08:19:14;;;;;;;4.95;1.63;;;;;;;6.33;69.33;99960.38;6002299;28;20386;-71
2022/04/09 08:22:09;;;;;;;7.63;1.63;;;;;;;6.27;70.42;99970.63;6002703;28;20037;-72
2022/04/09 08:25:05;;;;;;;4.07;1.90;;;;;;;6.21;71.11;99964.13;6002176;28;20402;-72
2022/04/09 08:28:02;;;;;;;8.65;2.38;;;;;;;6.09;71.15;99972.28;6002264;28;20081;-72
2022/04/09 08:30:57;;;;;;;4.93;1.20;;;;;;;6.21;71.79;99966.75;6001587;28;20050;-73
2022/04/09 08:33:53;;;;;;;4.80;1.50;;;;;;;6.19;71.74;99975.75;6002820;28;20475;-71
2022/04/09 08:36:49;;;;;;;4.97;1.40;;;;;;;6.26;71.30;99971.59;6003379;28;20466;-72
2022/04/09 08:39:44;;;;;;;6.25;1.60;;;;;;;6.26;71.04;99980.31;6002732;28;20282;-72
2022/04/09 08:42:40;;;;;;;5.90;1.60;;;;;;;6.24;70.56;99976.16;6002289;28;20474;-71
2022/04/09 08:45:39;;;;;;;9.00;1.73;;;;;;;6.74;69.45;99975.06;6005168;28;20760;-71
2022/04/09 08:48:36;;;;;;;6.28;1.25;;;;;;;7.25;66.78;99979.16;6001359;28;20023;-70
2022/04/09 08:51:32;;;;;;;2.65;1.10;;;;;;;7.27;66.69;99978.03;6001725;28;20037;-70
2022/04/09 08:54:29;;;;;;;6.57;1.10;;;;;;;6.86;64.70;99973.13;6007383;28;20034;-71
2022/04/09 08:57:24;;;;;;;10.25;1.77;;;;;;;7.05;66.15;99984.47;6010726;28;20060;-71
2022/04/09 09:00:20;;;;;;;3.33;1.20;;;;;;;7.36;64.29;99992.19;6001386;28;20510;-70
2022/04/09 09:03:16;;;;;;;5.75;1.25;;;;;;;7.23;65.45;99991.66;6007205;28;20097;-71
2022/04/09 09:06:27;;;;;;;2.60;0.97;;;;;;;7.40;64.99;99988.25;6000858;28;20039;-71
2022/04/09 09:09:32;;;;;;;5.53;0.90;;;;;;;7.57;62.84;99990.16;6000457;28;20027;-69
2022/04/09 09:12:31;;;;;;;4.28;0.93;;;;;;;7.69;62.99;99989.00;6001355;28;20119;-71
2022/04/09 09:15:26;;;;;;;4.82;1.17;;;;;;;7.38;63.52;100001.59;5982538;28;20042;-70
2022/04/09 09:18:24;;;;;;;4.50;1.17;;;;;;;6.98;64.37;100012.38;6005272;28;20034;-71
2022/04/09 09:21:23;;;;;;;5.82;0.85;;;;;;;7.23;64.35;100002.22;6001503;28;20766;-70
2022/04/09 09:24:18;;;;;;;5.50;1.20;;;;;;;7.85;63.28;100001.56;6011934;28;20047;-71
2022/04/09 09:27:14;;;;;;;1.95;0.80;;;;;;;7.72;60.88;100004.53;6002632;28;20041;-71
2022/04/09 09:30:13;;;;;;;2.27;0.80;;;;;;;7.59;61.90;100004.03;6001128;28;20089;-72
2022/04/09 09:33:09;;;;;;;8.70;1.27;;;;;;;7.40;62.51;100015.47;6005268;28;20572;-70
2022/04/09 09:36:04;;;;;;;3.00;1.45;;;;;;;7.36;62.77;100018.56;6010733;28;20031;-72
2022/04/09 09:39:03;;;;;;;7.13;1.03;;;;;;;7.43;61.04;100017.00;5989657;28;20030;-71
2022/04/09 09:42:02;;;;;;;7.00;0.95;;;;;;;7.34;62.87;100017.88;6006579;28;20270;-71
2022/04/09 09:44:57;;;;;;;7.35;1.27;;;;;;;7.12;62.52;100019.84;6006824;28;20023;-70
2022/04/09 09:47:56;;;;;;;5.63;1.20;;;;;;;7.18;62.87;100008.72;6006836;28;20536;-70
2022/04/09 09:50:53;;;;;;;5.25;1.70;;;;;;;7.24;63.33;100015.25;6006732;28;20499;-71
2022/04/09 09:53:49;;;;;;;2.55;0.85;;;;;;;7.34;63.17;100007.31;6007073;28;20402;-72
2022/04/09 09:56:44;;;;;;;0.88;0.65;;;;;;;7.31;62.37;100020.78;6019063;28;20027;-72
2022/04/09 09:59:40;;;;;;;3.35;1.00;;;;;;;7.58;61.34;100012.94;6005004;28;20041;-72
2022/04/09 10:02:37;;;;;;;3.97;0.90;;;;;;;7.86;61.63;100017.25;5986919;28;20466;-70
2022/04/09 10:05:32;;;;;;;4.15;0.90;;;;;;;8.51;59.67;100013.56;6003965;28;20100;-74
2022/04/09 10:08:29;;;;;;;2.38;0.88;;;;;;;8.23;58.92;100020.69;5986894;28;20022;-72
2022/04/09 10:11:26;;;;;;;2.67;0.82;;;;;;;7.92;59.05;100008.75;6007486;28;20061;-70
2022/04/09 10:14:23;;;;;;;3.42;0.95;;;;;;;8.24;60.42;100014.41;6007517;28;20039;-73
2022/04/09 10:17:19;;;;;;;7.63;1.17;;;;;;;8.34;59.21;100017.03;6005310;28;20030;-71
2022/04/09 10:20:17;;;;;;;5.22;1.02;;;;;;;7.98;59.03;100034.56;6003986;28;20035;-73
2022/04/09 10:23:14;;;;;;;2.00;1.00;;;;;;;7.25;64.08;100029.25;5987962;28;20066;-72
2022/04/09 10:26:10;;;;;;;2.95;1.00;;;;;;;6.97;67.84;100029.16;5987297;28;20043;-71
2022/04/09 10:29:08;;;;;;;9.30;1.10;;;;;;;7.43;65.94;100036.28;6011486;28;20042;-71
2022/04/09 10:32:04;;;;;;;6.57;1.17;;;;;;;7.88;62.36;100004.72;6003975;28;20617;-71
2022/04/09 10:34:59;;;;;;;3.20;1.10;;;;;;;8.48;61.57;100031.56;5986975;28;20035;-71
2022/04/09 10:38:06;;;;;;;2.13;0.80;;;;;;;8.78;61.00;100041.72;6004155;28;20065;-70
2022/04/09 10:41:02;;;;;;;7.38;1.13;;;;;;;8.90;60.90;100037.91;6001785;28;20031;-72
2022/04/09 10:43:58;;;;;;;5.63;1.38;;;;;;;9.23;60.65;100049.56;6003967;28;20078;-72
2022/04/09 10:46:53;;;;;;;3.42;0.93;;;;;;;8.89;62.16;100060.00;6002315;28;20054;-71
2022/04/09 10:50:00;;;;;;;0.53;0.30;;;;;;;7.86;66.35;100046.28;6004007;28;20046;-71
2022/04/09 10:52:59;;;;;;;1.73;0.60;;;;;;;7.82;66.98;100052.84;6003578;28;20030;-71
2022/04/09 10:56:15;;;;;;;2.92;0.70;;;;;;;8.53;67.05;100053.06;6003623;28;20043;-72
2022/04/09 10:59:13;;;;;;;1.80;0.60;;;;;;;8.68;64.77;100048.91;5964842;28;1209421;-72
2022/04/09 11:02:10;;;;;;;3.55;0.70;;;;;;;8.59;65.44;100031.34;6011495;28;20306;-71
2022/04/09 11:05:22;;;;;;;2.60;0.90;;;;;;;8.78;65.37;100041.72;5976310;28;20047;-71
2022/04/09 11:08:20;;;;;;;1.90;0.60;;;;;;;8.91;64.42;100043.00;5991763;28;20043;-70
2022/04/09 11:11:25;;;;;;;6.10;1.48;;;;;;;9.16;63.77;100041.41;6003843;28;20046;-70
2022/04/09 11:14:20;;;;;;;4.68;1.08;;;;;;;9.16;62.36;100041.41;5993843;28;20081;-71
2022/04/09 11:17:23;;;;;;;2.07;0.90;;;;;;;9.38;63.98;100030.34;6004874;28;20038;-71
2022/04/09 11:20:23;;;;;;;2.03;0.88;;;;;;;9.83;60.70;100029.28;6003227;28;20392;-71
2022/04/09 11:23:20;;;;;;;2.35;0.70;;;;;;;9.77;57.65;100043.97;6003632;28;20775;-72
2022/04/09 11:26:18;;;;;;;1.85;0.65;;;;;;;9.39;58.09;100033.81;6004757;28;20037;-70
2022/04/09 11:29:13;;;;;;;1.63;0.77;;;;;;;9.31;58.55;100061.06;6004524;28;20034;-71
2022/04/09 11:32:19;;;;;;;2.87;1.03;;;;;;;8.89;58.46;100044.16;6004156;28;20077;-73
2022/04/09 11:35:16;;;;;;;4.05;0.80;;;;;;;8.46;59.40;100051.97;6004137;28;20510;-71
2022/04/09 11:38:11;;;;;;;2.85;0.22;;;;;;;7.18;67.29;100101.00;6004591;28;20422;-70
2022/04/09 11:41:19;;;;;;;2.03;0.50;;;;;;;5.95;76.97;100103.25;6014222;28;20081;-72
2022/04/09 11:44:27;;;;;;;4.55;0.55;;;;;;;5.17;81.41;100100.25;6004190;28;20035;-72
2022/04/09 11:47:24;;;;;;;4.18;0.73;;;;;;;5.39;82.55;100107.19;6003617;28;20027;-72
2022/04/09 11:50:19;;;;;;;0.93;0.40;;;;;;;6.18;81.51;100108.31;5995237;28;20034;-71
2022/04/09 11:53:17;;;;;;;1.88;0.50;;;;;;;7.02;79.15;100100.72;6006369;28;20030;-70
2022/04/09 11:56:12;;;;;;;1.40;0.60;;;;;;;7.15;75.47;100127.66;6016023;28;20386;-70
2022/04/09 11:59:15;;;;;;;2.27;0.60;;;;;;;7.04;76.45;100126.94;5986928;28;20038;-70
2022/04/09 12:02:22;;;;;;;2.75;0.60;;;;;;;6.69;75.61;100132.72;6013108;28;20034;-72
2022/04/09 12:05:17;;;;;;;3.90;1.15;;;;;;;6.62;77.24;100118.44;6015135;28;20469;-70
2022/04/09 12:08:15;;;;;;;2.88;0.70;;;;;;;6.93;75.78;100117.38;5986479;28;20041;-70
2022/04/09 12:11:12;;;;;;;2.15;1.10;;;;;;;6.89;75.94;100116.00;6003015;28;20105;-71
2022/04/09 12:14:09;;;;;;;1.77;0.95;;;;;;;6.65;73.30;100120.81;6003040;28;20097;-70
2022/04/09 12:17:31;;;;;;;1.35;0.70;;;;;;;6.66;74.25;100132.19;6003243;28;20105;-71
2022/04/09 12:20:39;;;;;;;2.42;1.05;;;;;;;6.71;73.13;100138.72;6002721;28;20500;-71
2022/04/09 12:23:35;;;;;;;5.25;1.27;;;;;;;7.01;73.83;100143.88;6002870;28;20379;-70
2022/04/09 12:26:32;;;;;;;1.77;0.90;;;;;;;7.54;73.02;100148.72;6003467;28;20049;-71
2022/04/09 12:29:28;;;;;;;1.52;0.85;;;;;;;7.79;71.16;100153.41;6002839;28;20066;-72
2022/04/09 12:32:24;;;;;;;2.60;1.00;;;;;;;7.51;71.39;100159.56;6002706;28;20026;-72
2022/04/09 12:35:29;;;;;;;4.43;1.20;;;;;;;7.35;73.10;100164.56;6002119;28;20046;-71
2022/04/09 12:38:33;;;;;;;2.95;1.55;;;;;;;6.48;79.27;100225.00;6002657;28;20035;-71
2022/04/09 12:41:44;;;;;;;3.72;1.08;;;;;;;4.97;80.40;100218.44;6002051;28;20383;-71
2022/04/09 12:44:39;;;;;;;0.32;0.30;;;;;;;4.21;83.11;100229.72;6003320;28;20039;-71
2022/04/09 12:47:34;;;;;;;2.53;0.20;;;;;;;3.81;85.09;100244.97;6003165;28;20081;-70
2022/04/09 12:50:34;;;;;;;3.20;0.70;;;;;;;3.41;85.95;100210.41;6002264;28;20038;-71
2022/04/09 12:53:29;;;;;;;3.65;0.60;;;;;;;3.49;87.98;100228.19;6002903;28;20674;-71
2022/04/09 12:56:25;;;;;;;2.30;0.67;;;;;;;3.75;88.74;100244.63;6008304;28;20035;-71
2022/04/09 12:59:20;;;;;;;1.83;0.38;;;;;;;4.08;88.99;100236.81;6002848;28;20049;-71
2022/04/09 13:02:16;;;;;;;2.53;0.60;;;;;;;4.57;89.43;100226.84;6004017;28;20038;-73
2022/04/09 13:05:12;;;;;;;1.33;0.40;;;;;;;5.21;87.93;100237.50;6002555;28;20029;-73
2022/04/09 13:08:07;;;;;;;1.83;0.47;;;;;;;5.43;85.11;100232.97;6002986;28;20057;-70
2022/04/09 13:11:05;;;;;;;0.30;0.30;;;;;;;6.05;83.25;100223.50;6001947;28;20026;-72
2022/04/09 13:14:00;;;;;;;3.30;0.80;;;;;;;6.74;82.31;100233.25;6002974;28;20113;-70
2022/04/09 13:16:55;;;;;;;2.60;0.60;;;;;;;7.13;79.02;100228.94;6002725;28;20478;-71
2022/04/09 13:19:51;;;;;;;4.53;1.10;;;;;;;7.06;77.35;100222.56;6002495;28;20115;-73
2022/04/09 13:22:46;;;;;;;2.93;0.70;;;;;;;6.77;76.59;100238.28;6002054;28;20042;-72
2022/04/09 13:25:42;;;;;;;1.20;0.67;;;;;;;6.75;77.29;100221.78;6002170;28;20369;-71
2022/04/09 13:28:38;;;;;;;2.75;0.60;;;;;;;6.78;78.82;100234.69;6001846;28;20110;-72
2022/04/09 13:31:33;;;;;;;1.77;0.40;;;;;;;6.44;77.34;100230.66;6001920;28;20030;-74
2022/04/09 13:34:28;;;;;;;3.93;0.67;;;;;;;6.51;77.75;100216.00;6001877;28;20038;-74
2022/04/09 13:37:23;;;;;;;3.73;0.50;;;;;;;6.69;73.58;100224.94;6002577;28;20399;-72
2022/04/09 13:40:19;;;;;;;2.70;0.57;;;;;;;6.94;74.33;100235.00;6001058;28;20102;-72
2022/04/09 13:43:15;;;;;;;6.50;0.90;;;;;;;7.04;74.65;100237.66;6002780;28;20051;-72
2022/04/09 13:46:10;;;;;;;4.80;0.52;;;;;;;7.22;73.77;100245.75;6001550;28;20754;-72
2022/04/09 13:49:06;;;;;;;3.50;0.70;;;;;;;7.52;73.88;100246.50;6001905;28;20042;-72
2022/04/09 13:52:02;;;;;;;2.47;0.60;;;;;;;7.54;73.84;100244.53;6001620;28;20035;-71
2022/04/09 13:54:57;;;;;;;2.65;0.80;;;;;;;7.27;72.63;100252.28;6001625;28;20031;-71